createdAt,value
2022-10-24T00:01:55.514Z,30.90
2022-10-24T00:04:22.604Z,22.23
2022-10-24T00:15:19.437Z,19.95
2022-10-24T00:18:01.485Z,19.38
2022-10-24T00:20:28.564Z,16.45
2022-10-24T00:22:55.661Z,19.75
2022-10-24T00:25:26.411Z,20.73
2022-10-24T00:27:53.515Z,18.23
2022-10-24T00:30:22.166Z,16.05
2022-10-24T00:32:52.348Z,17.88
2022-10-24T00:35:20.193Z,21.33
2022-10-24T00:37:47.613Z,30.23
2022-10-24T00:40:40.080Z,18.17
2022-10-24T00:44:15.891Z,22.42
2022-10-24T00:46:46.977Z,18.02
2022-10-24T00:49:41.694Z,22.65
2022-10-24T00:52:10.380Z,20.17
2022-10-24T00:54:39.542Z,25.98
2022-10-24T00:57:38.038Z,20.42
2022-10-24T01:00:17.006Z,24.13
2022-10-24T01:02:44.476Z,17.38
2022-10-24T01:05:12.627Z,16.92
2022-10-24T01:08:10.781Z,16.27
2022-10-24T01:11:05.977Z,19.50
2022-10-24T01:13:54.187Z,21.20
2022-10-24T01:16:28.597Z,17.40
2022-10-24T01:19:30.608Z,15.60
2022-10-24T01:22:03.463Z,18.13
2022-10-24T01:25:13.814Z,21.30
2022-10-24T01:28:09.353Z,24.35
2022-10-24T01:31:00.488Z,16.42
2022-10-24T01:33:37.891Z,17.88
2022-10-24T01:36:38.729Z,17.17
2022-10-24T01:39:13.049Z,25.70
2022-10-24T01:44:17.072Z,21.30
2022-10-24T01:47:14.419Z,20.50
2022-10-24T01:49:46.310Z,20.92
2022-10-24T01:53:22.528Z,21.85
2022-10-24T01:55:54.444Z,18.65
2022-10-24T02:03:47.897Z,20.80
2022-10-24T02:06:28.450Z,23.17
2022-10-24T02:09:35.397Z,20.10
2022-10-24T02:12:03.509Z,19.45
2022-10-24T02:15:13.049Z,17.85
2022-10-24T02:17:40.211Z,16.95
2022-10-24T02:20:31.009Z,19.95
2022-10-24T02:23:25.975Z,19.33
2022-10-24T02:28:52.522Z,18.37
2022-10-24T02:35:39.511Z,19.27
2022-10-24T02:38:28.619Z,23.55
2022-10-24T02:41:21.383Z,18.60
2022-10-24T02:43:51.181Z,15.35
2022-10-24T02:55:15.479Z,16.83
2022-10-24T02:57:42.546Z,19.45
2022-10-24T03:01:00.726Z,15.43
2022-10-24T03:03:28.015Z,15.00
2022-10-24T03:05:55.062Z,16.92
2022-10-24T03:13:38.806Z,13.73
2022-10-24T03:16:08.981Z,13.27
2022-10-24T03:22:35.572Z,14.68
2022-10-24T03:25:03.801Z,13.32
2022-10-24T03:34:58.719Z,12.68
2022-10-24T03:38:22.870Z,16.10
2022-10-24T03:40:50.520Z,12.50
2022-10-24T03:43:18.310Z,10.73
2022-10-24T03:54:40.098Z,13.30
2022-10-24T03:57:09.602Z,10.68
2022-10-24T04:00:29.825Z,16.13
2022-10-24T04:02:57.083Z,12.93
2022-10-24T04:05:24.186Z,15.02
2022-10-24T04:16:18.180Z,10.48
2022-10-24T04:18:45.483Z,11.02
2022-10-24T04:21:15.871Z,10.00
2022-10-24T04:23:45.146Z,10.98
2022-10-24T04:27:09.747Z,14.43
2022-10-24T04:29:37.009Z,14.35
2022-10-24T04:32:04.537Z,12.80
2022-10-24T04:35:08.237Z,10.93
2022-10-24T04:37:35.428Z,11.65
2022-10-24T04:40:02.791Z,12.13
2022-10-24T04:43:33.776Z,12.48
2022-10-24T04:46:02.665Z,14.02
2022-10-24T04:48:29.887Z,11.30
2022-10-24T04:51:47.739Z,11.82
2022-10-24T04:54:14.862Z,13.38
2022-10-24T04:56:42.450Z,8.73
2022-10-24T04:59:09.621Z,12.25
2022-10-24T05:01:36.834Z,11.40
2022-10-24T05:04:04.172Z,9.20
2022-10-24T05:16:19.740Z,11.65
2022-10-24T05:18:46.869Z,9.98
2022-10-24T05:21:14.001Z,9.00
2022-10-24T05:23:41.151Z,10.80
2022-10-24T05:26:08.662Z,9.75
2022-10-24T05:33:03.340Z,13.32
2022-10-24T05:35:31.508Z,9.35
2022-10-24T05:37:58.583Z,8.98
2022-10-24T05:40:26.260Z,10.73
2022-10-24T05:43:26.406Z,10.23
2022-10-24T05:45:53.545Z,9.27
2022-10-24T05:48:21.935Z,7.88
2022-10-24T05:52:05.596Z,11.20
2022-10-24T05:54:42.571Z,10.88
2022-10-24T06:07:16.711Z,11.18
2022-10-24T06:09:44.306Z,12.30
2022-10-24T06:12:43.689Z,10.93
2022-10-24T06:15:28.314Z,14.85
2022-10-24T06:18:16.935Z,11.73
2022-10-24T06:20:44.056Z,10.82
2022-10-24T06:23:11.211Z,11.13
2022-10-24T06:25:42.775Z,11.07
2022-10-24T06:31:18.528Z,11.60
2022-10-24T06:33:55.737Z,12.90
2022-10-24T06:36:26.804Z,12.20
2022-10-24T06:39:18.835Z,13.73
2022-10-24T06:41:46.566Z,10.75
2022-10-24T06:44:15.187Z,9.43
2022-10-24T06:47:44.012Z,16.95
2022-10-24T06:50:11.524Z,13.43
2022-10-24T06:52:39.927Z,9.43
2022-10-24T06:56:20.878Z,11.48
2022-10-24T06:58:48.022Z,12.38
2022-10-24T07:01:35.846Z,14.98
2022-10-24T07:04:03.329Z,10.75
2022-10-24T07:09:54.745Z,13.02
2022-10-24T07:19:55.896Z,12.00
2022-10-24T07:22:23.674Z,9.10
2022-10-24T07:25:16.804Z,10.80
2022-10-24T07:27:43.993Z,11.32
2022-10-24T07:33:53.553Z,11.95
2022-10-24T07:40:42.297Z,9.63
2022-10-24T07:43:09.733Z,12.30
2022-10-24T07:45:39.191Z,10.60
2022-10-24T07:48:26.579Z,10.18
2022-10-24T07:50:54.528Z,8.93
2022-10-24T07:53:22.278Z,7.82
2022-10-24T07:55:49.414Z,14.30
2022-10-24T07:58:18.887Z,10.82
2022-10-24T08:01:09.640Z,15.40
2022-10-24T08:03:37.302Z,10.52
2022-10-24T08:06:09.350Z,7.00
2022-10-24T08:08:37.885Z,12.68
2022-10-24T08:11:21.886Z,7.95
2022-10-24T08:13:50.928Z,8.27
2022-10-24T08:21:16.151Z,9.32
2022-10-24T08:23:46.621Z,10.13
2022-10-24T08:30:14.022Z,7.80
2022-10-24T08:32:41.195Z,8.68
2022-10-24T08:35:17.500Z,6.95
2022-10-24T08:37:45.284Z,9.77
2022-10-24T08:40:16.585Z,6.20
2022-10-24T08:42:53.106Z,11.77
2022-10-24T08:45:34.458Z,8.48
2022-10-24T08:48:28.525Z,9.98
2022-10-24T08:51:09.228Z,7.53
2022-10-24T08:53:43.605Z,8.80
2022-10-24T08:56:12.584Z,9.38
2022-10-24T08:59:30.003Z,7.10
2022-10-24T09:02:16.104Z,9.50
2022-10-24T09:04:59.788Z,6.93
2022-10-24T09:07:27.169Z,8.50
2022-10-24T09:10:57.846Z,5.40
2022-10-24T09:13:28.202Z,8.15
2022-10-24T09:15:56.111Z,6.07
2022-10-24T09:18:41.442Z,10.77
2022-10-24T09:21:16.132Z,12.55
2022-10-24T09:23:44.838Z,6.60
2022-10-24T09:26:44.132Z,7.32
2022-10-24T09:29:11.514Z,6.65
2022-10-24T09:32:00.218Z,5.57
2022-10-24T09:34:27.487Z,4.40
2022-10-24T09:36:54.733Z,9.57
2022-10-24T09:39:43.684Z,4.50
2022-10-24T09:42:22.191Z,8.13
2022-10-24T09:45:41.735Z,13.02
2022-10-24T09:48:30.777Z,8.10
2022-10-24T09:51:01.478Z,6.13
2022-10-24T09:53:33.766Z,6.68
2022-10-24T09:56:15.721Z,4.50
2022-10-24T09:58:46.182Z,7.35
2022-10-24T10:01:43.018Z,7.03
2022-10-24T10:04:19.272Z,6.20
2022-10-24T10:08:08.435Z,5.03
2022-10-24T10:10:37.924Z,7.88
2022-10-24T10:13:16.450Z,5.40
2022-10-24T10:15:53.668Z,6.85
2022-10-24T10:19:13.595Z,7.60
2022-10-24T10:22:02.047Z,6.00
2022-10-24T10:24:56.952Z,9.15
2022-10-24T10:27:37.780Z,5.55
2022-10-24T10:30:12.461Z,8.55
2022-10-24T10:33:10.728Z,7.82
2022-10-24T10:36:13.669Z,5.95
2022-10-24T10:38:51.543Z,6.72
2022-10-24T10:42:09.399Z,16.45
2022-10-24T10:44:47.023Z,10.80
2022-10-24T10:47:30.134Z,8.18
2022-10-24T10:49:58.929Z,9.77
2022-10-24T10:52:46.442Z,5.90
2022-10-24T10:55:38.019Z,7.35
2022-10-24T11:01:14.571Z,10.38
2022-10-24T11:04:13.575Z,5.50
2022-10-24T11:07:05.278Z,5.97
2022-10-24T11:09:59.564Z,9.52
2022-10-24T11:12:32.899Z,6.78
2022-10-24T11:15:20.972Z,9.17
2022-10-24T11:17:59.283Z,9.50
2022-10-24T11:20:44.720Z,8.57
2022-10-24T11:23:14.574Z,7.88
2022-10-24T11:25:59.446Z,10.60
2022-10-24T11:28:52.104Z,11.75
2022-10-24T11:31:35.498Z,5.35
2022-10-24T11:34:20.767Z,6.70
2022-10-24T11:36:53.488Z,6.65
2022-10-24T11:39:42.577Z,8.80
2022-10-24T11:42:45.842Z,11.50
2022-10-24T11:45:18.016Z,10.88
2022-10-24T11:47:52.513Z,9.43
2022-10-24T11:50:32.148Z,11.32
2022-10-24T11:53:33.367Z,7.32
2022-10-24T11:56:12.392Z,9.32
2022-10-24T11:58:57.594Z,8.43
2022-10-24T12:01:55.435Z,6.97
2022-10-24T12:04:38.161Z,9.75
2022-10-24T12:07:38.922Z,10.20
2022-10-24T12:10:48.973Z,9.00
2022-10-24T12:13:16.401Z,8.80
2022-10-24T12:16:12.446Z,13.07
2022-10-24T12:18:59.110Z,8.55
2022-10-24T12:21:34.566Z,14.55
2022-10-24T12:24:02.286Z,9.10
2022-10-24T12:26:59.947Z,11.23
2022-10-24T12:29:28.842Z,8.02
2022-10-24T12:31:56.013Z,14.80
2022-10-24T12:34:23.302Z,9.50
2022-10-24T12:37:04.171Z,7.25
2022-10-24T12:39:36.740Z,8.77
2022-10-24T12:42:24.116Z,11.27
2022-10-24T12:45:04.353Z,7.43
2022-10-24T12:47:52.940Z,8.52
2022-10-24T12:50:24.586Z,12.85
2022-10-24T12:52:56.911Z,9.90
2022-10-24T12:55:42.253Z,12.50
2022-10-24T12:58:36.912Z,7.55
2022-10-24T13:04:02.562Z,11.00
2022-10-24T13:07:05.318Z,11.45
2022-10-24T13:09:41.389Z,12.05
2022-10-24T13:12:36.447Z,8.10
2022-10-24T13:15:19.103Z,9.40
2022-10-24T13:17:52.599Z,10.20
2022-10-24T13:20:29.086Z,8.02
2022-10-24T13:23:06.287Z,10.35
2022-10-24T13:26:08.319Z,6.25
2022-10-24T13:28:39.633Z,12.77
2022-10-24T13:31:52.334Z,10.80
2022-10-24T13:34:37.303Z,8.40
2022-10-24T13:37:45.802Z,10.93
2022-10-24T13:40:32.337Z,10.98
2022-10-24T13:43:07.450Z,15.25
2022-10-24T13:45:46.814Z,9.68
2022-10-24T13:48:23.385Z,15.75
2022-10-24T13:51:15.636Z,12.57
2022-10-24T13:54:30.831Z,9.50
2022-10-24T13:56:59.872Z,12.68
2022-10-24T14:00:50.283Z,9.45
2022-10-24T14:03:20.684Z,9.77
2022-10-24T14:06:04.984Z,11.30
2022-10-24T14:08:50.159Z,11.73
2022-10-24T14:11:26.410Z,10.48
2022-10-24T14:13:56.848Z,12.57
2022-10-24T14:16:34.432Z,16.42
2022-10-24T14:19:33.715Z,11.40
2022-10-24T14:22:56.471Z,10.00
2022-10-24T14:25:31.196Z,9.98
2022-10-24T14:28:38.831Z,9.02
2022-10-24T14:31:08.980Z,9.63
2022-10-24T14:34:09.868Z,10.25
2022-10-24T14:36:39.392Z,10.85
2022-10-24T14:39:08.157Z,8.98
2022-10-24T14:41:41.520Z,9.88
2022-10-24T14:44:21.625Z,9.25
2022-10-24T14:47:19.081Z,12.07
2022-10-24T14:50:53.534Z,11.02
2022-10-24T14:53:29.844Z,7.03
2022-10-24T14:56:17.996Z,11.23
2022-10-24T14:58:49.687Z,10.88
2022-10-24T15:01:25.175Z,13.30
2022-10-24T15:03:54.822Z,8.40
2022-10-24T15:06:27.139Z,7.70
2022-10-24T15:09:07.334Z,15.20
2022-10-24T15:11:43.387Z,12.05
2022-10-24T15:14:39.747Z,18.20
2022-10-24T15:17:18.882Z,14.10
2022-10-24T15:19:47.386Z,25.58
2022-10-24T15:22:27.007Z,25.35
2022-10-24T15:24:56.064Z,51.83
2022-10-24T15:27:38.205Z,68.70
2022-10-24T15:30:11.561Z,56.95
2022-10-24T15:32:39.904Z,38.55
2022-10-24T15:35:08.625Z,15.35
2022-10-24T15:37:36.225Z,15.25
2022-10-24T15:40:14.923Z,14.02
2022-10-24T15:42:42.076Z,10.45
2022-10-24T15:45:34.694Z,14.43
2022-10-24T15:48:07.206Z,8.85
2022-10-24T15:50:37.742Z,13.95
2022-10-24T15:53:05.313Z,8.80
2022-10-24T15:55:32.713Z,11.35
2022-10-24T15:58:01.077Z,8.95
2022-10-24T16:00:28.249Z,8.90
2022-10-24T16:02:58.321Z,11.82
2022-10-24T16:05:54.961Z,13.32
2022-10-24T16:08:24.209Z,10.30
2022-10-24T16:11:16.453Z,10.35
2022-10-24T16:13:43.868Z,8.27
2022-10-24T16:16:11.042Z,10.48
2022-10-24T16:23:05.677Z,16.60
2022-10-24T16:25:37.404Z,16.50
2022-10-24T16:28:51.134Z,16.13
2022-10-24T16:31:23.723Z,21.00
2022-10-24T16:34:41.342Z,22.95
2022-10-24T16:37:08.481Z,20.25
2022-10-24T16:39:35.571Z,16.33
2022-10-24T16:46:31.295Z,17.25
2022-10-24T16:48:58.755Z,22.40
2022-10-24T16:54:54.585Z,17.00
2022-10-24T16:59:51.037Z,19.48
2022-10-24T17:02:24.910Z,25.73
2022-10-24T17:04:52.283Z,18.25
2022-10-24T17:07:20.680Z,16.65
2022-10-24T17:09:54.873Z,22.67
2022-10-24T17:14:49.433Z,20.00
2022-10-24T17:21:50.446Z,22.60
2022-10-24T17:24:45.836Z,21.58
2022-10-24T17:27:14.908Z,16.73
2022-10-24T17:30:08.018Z,15.23
2022-10-24T17:32:35.237Z,18.15
2022-10-24T17:35:02.780Z,15.38
2022-10-24T17:44:55.682Z,15.20
2022-10-24T17:47:22.897Z,18.65
2022-10-24T17:50:18.640Z,12.80
2022-10-24T17:52:51.071Z,15.13
2022-10-24T17:55:48.426Z,19.20
2022-10-24T17:58:16.365Z,24.13
2022-10-24T18:00:44.330Z,20.02
2022-10-24T18:03:12.184Z,15.80
2022-10-24T18:05:39.850Z,21.73
2022-10-24T18:08:25.978Z,19.98
2022-10-24T18:10:53.167Z,19.13
2022-10-24T18:13:20.301Z,23.38
2022-10-24T18:15:47.475Z,20.15
2022-10-24T18:18:17.356Z,20.20
2022-10-24T18:25:36.760Z,18.27
2022-10-24T18:28:03.972Z,14.90
2022-10-24T18:30:31.311Z,20.88
2022-10-24T18:33:26.386Z,18.88
2022-10-24T18:35:53.517Z,25.25
2022-10-24T18:38:20.699Z,16.05
2022-10-24T18:58:16.455Z,12.97
2022-10-24T19:00:44.196Z,21.42
2022-10-24T19:03:39.977Z,12.57
2022-10-24T19:06:28.279Z,12.10
2022-10-24T19:09:57.259Z,19.60
2022-10-24T19:12:24.573Z,17.63
2022-10-24T19:14:52.064Z,23.17
2022-10-24T19:17:45.726Z,23.20
2022-10-24T19:20:22.482Z,19.92
2022-10-24T19:27:34.524Z,17.08
2022-10-24T19:30:01.769Z,16.10
2022-10-24T19:32:28.911Z,16.90
2022-10-24T19:40:29.238Z,22.73
2022-10-24T19:42:59.145Z,20.52
2022-10-24T19:45:26.275Z,28.00
2022-10-24T19:52:40.589Z,16.25
2022-10-24T19:55:08.087Z,13.55
2022-10-24T19:57:35.167Z,14.60
2022-10-24T20:00:16.008Z,14.00
2022-10-24T20:02:43.578Z,16.35
2022-10-24T20:05:10.872Z,15.25
2022-10-24T20:08:55.111Z,14.13
2022-10-24T20:11:23.147Z,20.92
2022-10-24T20:13:51.337Z,12.40
2022-10-24T20:20:20.513Z,13.10
2022-10-24T20:29:36.214Z,13.13
2022-10-24T20:32:19.357Z,11.25
2022-10-24T20:34:46.459Z,15.40
2022-10-24T20:37:13.672Z,19.23
2022-10-24T20:43:43.613Z,12.90
2022-10-24T20:46:29.076Z,12.02
2022-10-24T20:48:56.209Z,15.85
2022-10-24T20:51:23.522Z,15.27
2022-10-24T20:58:22.552Z,14.48
2022-10-24T21:00:49.731Z,14.32
2022-10-24T21:03:24.707Z,11.23
2022-10-24T21:05:51.845Z,16.83
2022-10-24T21:08:19.142Z,13.18
2022-10-24T21:11:37.019Z,14.13
2022-10-24T21:14:06.996Z,18.70
2022-10-24T21:19:41.434Z,15.52
2022-10-24T21:22:08.708Z,15.57
2022-10-24T21:33:13.928Z,13.23
2022-10-24T21:35:41.012Z,13.75
2022-10-24T21:38:16.688Z,14.30
2022-10-24T21:40:43.894Z,13.30
2022-10-24T21:43:11.093Z,12.30
2022-10-24T21:49:55.515Z,15.43
2022-10-24T21:52:24.108Z,13.55
2022-10-24T21:54:51.274Z,19.60
2022-10-24T21:57:18.464Z,12.18
2022-10-24T21:59:45.662Z,13.82
2022-10-24T22:02:38.390Z,10.45
2022-10-24T22:05:05.909Z,14.15
2022-10-24T22:07:33.049Z,15.13
2022-10-24T22:10:00.204Z,14.15
2022-10-24T22:12:27.805Z,14.65
2022-10-24T22:16:13.014Z,12.93
2022-10-24T22:18:40.406Z,14.88
2022-10-24T22:21:09.971Z,12.93
2022-10-24T22:24:28.198Z,16.70
2022-10-24T22:26:55.456Z,14.20
2022-10-24T22:29:24.390Z,16.77
2022-10-24T22:32:29.344Z,14.85
2022-10-24T22:34:56.708Z,11.25
2022-10-24T22:37:55.472Z,14.65
2022-10-24T22:40:25.170Z,11.90
2022-10-24T22:42:52.785Z,11.52
2022-10-24T22:46:03.548Z,15.40
2022-10-24T22:48:33.361Z,13.30
2022-10-24T22:54:53.185Z,13.02
2022-10-24T22:57:20.843Z,11.77
2022-10-24T23:00:54.133Z,11.02
2022-10-24T23:03:36.301Z,11.00
2022-10-24T23:10:56.455Z,11.35
2022-10-24T23:13:24.105Z,8.77
2022-10-24T23:15:54.576Z,11.32
2022-10-24T23:18:21.997Z,11.02
2022-10-24T23:33:30.514Z,8.75
2022-10-24T23:35:59.783Z,8.57
2022-10-24T23:42:55.556Z,7.30
2022-10-24T23:45:26.973Z,9.75
2022-10-24T23:56:03.029Z,7.22
2022-10-24T23:58:30.167Z,6.70
